SiktMolnbas
>≥ 10km≥ 10km ≥ 2000ft≥ 2000ft
< 10km< 10km < 2000ft< 2000ft
< 8km< 8km < 1500ft< 1500ft
< 5km< 5km < 1000ft< 1000ft
< 3km< 3km < 500ft< 500ft

Nytt 18 jan 2017:

Nytt 17 jan 2017:

ESNQ (09:50 UTC)

Kiruna flygplats

METAR

ESNQ 230950Z 21001KT 9999 SCT010 M22/M24 Q1008=

TAF

SN

ESNQ 230830Z 2309/2318 VRB02KT CAVOK PROB40 2311/2317 2000 -SN BKN004=

ESNG (09:50 UTC)

Gällivare (Kavaheden), Lapland Airport

METAR

ESNG 230950Z 29005KT CAVOK M22/M25 Q1009=

TAF

SN

ESNG 230830Z 2309/2312 VRB02KT CAVOK PROB40 2311/2312 4000 -SN BKN006=

ESPA (09:50 UTC)

Luleå Airport (Kallax)

METAR

ESPA 230950Z 36003KT 330V030 CAVOK M19/M21 Q1011=

TAF

ESPA 230825Z 2309/2318 VRB02KT CAVOK RMK MIL=

ESNL (09:20 UTC)

Lycksele flygplats

METAR

SN

ESNL 230920Z 00000KT 2100 -SN OVC008 M22/M25 Q1008=

TAF

Ingen TAF hittades.

ESNU (09:50 UTC)

Umeå City Airport

METAR

ESNU 230950Z 34009KT 9999 FEW011 OVD030 M12/M14 Q1008 RWY 14 ICE 11-25 PCT FCT 0.36=

TAF

SN

ESNU 230830Z 2309/2318 34005KT 9000 -SN OVC003 TEMPO 2309/2318 3000 SN BKN012=

ESNO (09:50 UTC)

Örnsköldsvik flygplats

METAR

SN

ESNO 230950Z AUTO 02003KT 2100 -SN OVC002/// M14/M16 Q1008=

TAF

SN

ESNO AAA 230631Z 2306/2310 01003KT 9000 -SN BKN002 PROB40 2306/2310 1500 SN SCT002 BKN010=

ESNK (09:50 UTC)

Kramfors-Sollefteå flygplats

METAR

SN

ESNK 230950Z AUTO 34006KT 9999 -SN OVC013/// M10/M13 Q1008=

TAF

SN

ESNK 230530Z 2306/2310 34003KT 9999 BKN009 PROB40 2306/2310 3000 -SN SCT009 BKN012=

ESNN (09:50 UTC)

Sundsvall-Härnösands flygplats (Midlanda)

METAR

ESNN 230950Z VRB02KT 9999 OVC007 M07/M09 Q1007 RWY 16 ICE 51-100 PCT FCT 0.39=

TAF

SN

ESNN 230830Z 2309/2318 36002KT 9999 FEW006 BKN020 PROB40 2309/2314 OVC006 PROB40 2314/2318 3000 -SN BKN005=

ESNZ (09:50 UTC)

Åre Östersund Airport (Frösön)

METAR

SN

ESNZ 230950Z 27002KT 9999 -SN BKN006 M13/M15 Q1003=

TAF

SNBR

ESNZ AAA 230859Z 2309/2318 VRB02KT 9999 BKN006 PROB40 2309/2318 3000 -SN BR SCT006 BKN010=

ESNS (09:50 UTC)

Skellefteå flygplats

METAR

SN

ESNS 230950Z 34003KT 7000 -SN BKN005 M13/M14 Q1010=

TAF

SNBR

ESNS AAA 230859Z 2309/2318 34002KT 9000 -SN BKN004 TEMPO 2309/2311 2500 SN BR BKN010 PROB40 2311/2318 4000 BKN010=

ESGT (09:50 UTC)

Trollhättan-Vänersborgs flygplats (Malöga flygplats)

METAR

ESGT 230950Z 14005KT CAVOK M03/M04 Q1008=

TAF

ESGT 230830Z 2309/2318 15005KT 9999 BKN045=

ESGG (09:50 UTC)

Göteborg-Landvetter flygplats

METAR

BR

ESGG 230950Z 13007KT 9000 BR SCT008 M03/M05 Q1006 RWY 21 WET OR WATER PATCHES 51-100 PCT BA GOOD=

TAF

ESGG AAA 230612Z 2306/2406 13007KT CAVOK TEMPO 2306/2308 BKN007=

ESMT (09:50 UTC)

Halmstads flygplats

METAR

ESMT 230950Z 13009KT 100V160 8000 FEW010 M03/M05 Q1007=

TAF

ESMT 230807Z 2309/2318 12008KT 9000 SCT015 TEMPO 2309/2318 BKN012=

ESTA (09:50 UTC)

Ängelholm-Helsingborg flygplats

METAR

ESTA 230950Z 11010KT 6000 NSC M02/M04 Q1007=

TAF

ESTA 230807Z 2309/2318 12010KT 8000 SCT015 TEMPO 2309/2318 BKN012=

ESTL (09:50 UTC)

Ljungbyheds flygplats

METAR

BR

ESTL 230950Z AUTO 12007KT 6000 BR NCD M02/M04 Q1008=

TAF

Ingen TAF hittades.

ESMS (09:50 UTC)

Malmö Airport

METAR

BR

ESMS 230950Z 14006KT 100V160 6000 BR NSC M01/M05 Q1007 RWY 17 DAMP 51-100 PCT BA GOOD=

TAF

ESMS 230454Z 2306/2406 14010KT 8000 SCT015 TEMPO 2306/2406 BKN008=

ESMK (09:50 UTC)

Kristianstad Airport

METAR

ESMK 230950Z 14005KT 7000 NSC M01/M05 Q1008=

TAF

ESMK 230807Z 2309/2318 14008KT 7000 SCT015 TEMPO 2309/2318 BKN012=

ESDF (09:50 UTC)

Ronneby flygplats

METAR

ESDF 230950Z 17006KT 9999 FEW018 BKN021 M00/M03 Q1009=

TAF

ESDF 230830Z 2309/2318 16010KT 9999 SCT020 TEMPO 2309/2312 BKN014 RMK MIL=

ESMQ (09:50 UTC)

Kalmar Airport

METAR

BR

ESMQ 230950Z 17006KT 7000 BR SCT015 M01/M02 Q1010=

TAF

ESMQ 230830Z 2309/2318 17007KT 8000 FEW015 PROB40 2309/2311 2000 BCFG=

ESMX (09:50 UTC)

Växjö, Smaland Airport

METAR

BR

ESMX 230950Z 14004KT 110V170 9000 BR FEW014 M03/M03 Q1008=

TAF

BR

ESMX AAA 230926Z 2309/2318 14005KT 8000 BKN012 PROB40 2309/2310 2000 BR BECMG 2310/2312 BKN015=

ESGJ (09:50 UTC)

Jönköping Airport

METAR

ESGJ 230950Z 17006KT 140V200 9999 FEW009 M02/M04 Q1007 R01/00//70=

TAF

ESGJ 230830Z 2309/2318 16005KT 9999 BKN015 PROB40 2309/2312 BKN012=

ESSA (09:50 UTC)

Stockholm-Arlanda flygplats

METAR

BR

ESSA 230950Z 26003KT 220V280 1600 BR OVC003 M03/M03 Q1009 RWY 01L ICE 0-10 PCT FCT 0.63 RWY 08 ICE 0-10 PCT FCT 0.67 RWY 01R ICE 11-25 PCT FCT 0.75 TEMPO BKN005=

TAF

BR

ESSA AAB 230755Z 2307/2406 26003KT 6000 OVC002 PROB40 2308/2310 1400 BR OVC005 BECMG 2310/2312 OVC008 TEMPO 2312/2317 SCT008 BKN012 PROB40 2317/2406 2500 BR OVC004=

ESSB (09:50 UTC)

Stockholm-Bromma flygplats

METAR

ESSB 230950Z 24002KT 7000 OVC003 M01/M01 Q1009 RWY 12 WET OR WATER PATCHES 51-100 PCT FCT 0.69=

TAF

BR

ESSB 230830Z 2309/2318 27004KT 2000 BR OVC002 BECMG 2309/2311 7000 BKN008 PROB40 2311/2318 BKN016=

ESKN (09:50 UTC)

Stockholm-Skavsta flygplats

METAR

ESKN 230950Z 27004KT 9999 SCT033 BKN045 M03/M03 Q1009 RWY 26 ICE 0-10 PCT 2 MM BA GOOD=

TAF

BR

ESKN 230530Z 2306/2406 VRB02KT 6000 BKN015 PROB40 2306/2309 2000 BR BKN008 PROB40 2317/2406 0300 FZFG VV002=

ESSP (09:50 UTC)

Norrköping flygplats

METAR

ESSP 230950Z 00000KT 9999 BKN045 M00/M03 Q1009 RWY 27 ICE 51-100 PCT 1 MM BA GOOD=

TAF

ESSP 230830Z 2309/2318 VRB02KT 9999 BKN040=

ESSL (09:50 UTC)

Linköping - SAAB Flygplats

METAR

ESSL 230950Z 17003KT 9999 BKN036 M01/M04 Q1009 RWY 29 RIME OR FROST FCT 0.66=

TAF

ESSL 230830Z 2309/2318 15002KT 9999 BKN035 RMK MIL=

ESSV (09:50 UTC)

Visby flygplats

METAR

SN

ESSV 230950Z 20008KT 3800 -SN FEW010 BKN015 M00/M01 Q1009 RWY 21 ICE 51-100 PCT FCT 0.32=

TAF

SHSN

ESSV CCA 230845Z 2309/2318 22010KT 9999 BKN025 TEMPO 2309/2312 4000 SHSN BKN014=

ESOW (09:50 UTC)

Stockholm-Västerås flygplats

METAR

BR

ESOW 230950Z 18006KT 4100 BR SCT003 BKN046 M04/M05 Q1009 RWY 19 WET SNOW 0-10 PCT 1 MM FCT 0.69=

TAF

BR

ESOW AAA 230848Z 2309/2315 27004KT 6000 BKN004 TEMPO 2309/2315 2000 BR SCT004 BKN045=

ESOE (09:50 UTC)

Örebro flygplats

METAR

FG

ESOE 230950Z VRB02KT 0150 R01/0450U R19/0550N FZFG VV003 M03/M04 Q1009=

TAF

BR

ESOE 230830Z 2309/2318 03004KT 0300 FZFG VV002 TEMPO 2309/2311 1200 BR BECMG 2311/2312 6000 SCT005 PROB40 2312/2318 2000 BR BKN003=

ESOK (09:50 UTC)

Karlstad Airport

METAR

ESOK 230950Z 04002KT 7000 OVC031 M05/M05 Q1007=

TAF

ESOK 230830Z 2309/2318 VRB02KT 9999 BKN040 PROB40 2315/2318 0500 FZFG VV002=

ESSD (09:50 UTC)

Borlänge, Dala Airport

METAR

ESSD 230950Z 00000KT CAVOK M10/M10 Q1007=

TAF

ESSD 230830Z 2309/2316 VRB02KT CAVOK=

ESGR (09:50 UTC)

Skövde flygplats

METAR

ESGR 230950Z 19006KT 9999 FEW022 M01/M04 Q1008=

TAF

Ingen TAF hittades.

ESIB (09:50 UTC)

Såtenäs

METAR

ESIB 230950Z 16003KT CAVOK M03/M04 Q1008=

TAF

ESIB 230830Z 2309/2316 14006KT CAVOK TEMPO 2309/2312 9999 BKN009 RMK MIL=

ESNV (09:50 UTC)

Vilhelmina flygplats

METAR

SN

ESNV 230950Z AUTO 00000KT 9999 -SN OVC024/// M19/M21 Q1007=

TAF

Ingen TAF hittades.

ESST (09:50 UTC)

Torsby flygplats (Fryklanda)

METAR

FG

ESST 230950Z AUTO 00000KT 0300 R16/0600N R34/0550N FZFG OVC002/// M04/M05 Q1007=

TAF

Ingen TAF hittades.

ESUT (09:50 UTC)

Hemavans flygplats

METAR

SN

ESUT 230950Z AUTO 00000KT 4800 -SN FEW017/// M30/M33 Q1006=

TAF

Ingen TAF hittades.

ESNX (09:50 UTC)

Arvidsjaur flygplats

METAR

ESNX 230950Z VRB02KT 9999 FEW005 BKN090 M17/M19 Q1007=

TAF

SN

ESNX 230830Z 2309/2318 29003KT 9999 BKN040 PROB40 2309/2314 2500 -SN BKN005=

ESIA (09:50 UTC)

Karlsborg

METAR

ESIA 230950Z 21003KT 170V260 9999 BKN020 BKN032 M01/M04 Q1008=

TAF

ESIA 230830Z 2309/2315 08005KT CAVOK TEMPO 2309/2312 9999 BKN007 RMK MIL=

ESUP (09:50 UTC)

Pajala

METAR

SN

ESUP 230950Z 00000KT 2100 -SN SCT003 BKN004 OVC005 M26/M28 Q1011=

TAF

Ingen TAF hittades.

ESPE (09:50 UTC)

Vidsel

METAR

ESPE 230950Z 00000KT CAVOK M17/M19 Q1010=

TAF

ESPE 230825Z 2309/2315 VRB02KT CAVOK RMK MIL=

ESCM (09:50 UTC)

Uppsala

METAR

BR

ESCM 230950Z 00000KT 8000 BR FEW049 BKN160 M07/M07 Q1009=

TAF

SNBR

ESCM RRA 230910Z 2309/2315 27004KT 8000 BR FEW003 BKN050 TEMPO 2309/2312 3000 -SN BKN003 PROB30 2309/2312 0800 FZFG VV003 RMK MIL=

ESKM (09:50 UTC)

Mora/Siljan

METAR

ESKM 230950Z AUTO 13003KT 110V180 9999 OVC041/// M05/M06 Q1006=

TAF

Ingen TAF hittades.

EKRN (09:50 UTC)

Bornholm Airport

METAR

EKRN 230950Z AUTO 14013KT 9999 FEW022/// M00/M05 Q1008=

TAF

EKRN 230824Z 2309/2318 15015KT 9999 FEW015 TEMPO 2314/2318 BKN012=

EFIV (09:50 UTC)

Ivalo Airport

METAR

SHSN

EFIV 230950Z AUTO 25003KT 210V270 9999 -SHSN NCD M23/M26 Q1011=

TAF

Ingen TAF hittades.

EFKT (09:50 UTC)

Kittilä Airport

METAR

EFKT 230950Z 24003KT CAVOK M19/M21 Q1010=

TAF

SN

EFKT 230825Z 2309/2317 34006KT 9999 SCT005 TEMPO 2309/2314 4000 -SN BKN004 PROB30 2314/2317 4000 -SN BKN004=

EFRO (09:50 UTC)

Rovaniemi Airport

METAR

FG

EFRO 230950Z 36005KT 9999 BCFG NSC M18/M19 Q1008=

TAF

EFRO 230825Z 2309/2409 36006KT CAVOK TEMPO 2316/2406 2000 BCFG TEMPO 2406/2409 BKN003=

EFKE (09:50 UTC)

Kemi-Tornio Airport

METAR

EFKE 230950Z 02007KT CAVOK M23/M25 Q1010=

TAF

EFKE 230825Z 2309/2318 03007KT CAVOK=

EFKS (09:50 UTC)

Kuusamo Airport

METAR

EFKS 230950Z 31007KT 9999 3000SW NSC M18/M20 Q1006=

TAF

SN

EFKS 230825Z 2309/2313 30004KT 9999 FEW003 PROB40 2309/2313 1500 -SN BKN003=

EFOU (09:50 UTC)

Oulu Airport

METAR

EFOU 230950Z AUTO 35004KT 330V040 CAVOK M21/M23 Q1009=

TAF

SN

EFOU 230825Z 2309/2409 02005KT CAVOK PROB40 2320/2409 3000 -SN BKN004=

EFKI (09:50 UTC)

Kajaani Airport

METAR

EFKI 230950Z AUTO 06003KT CAVOK M19/M22 Q1006=

TAF

EFKI 230833Z 2309/2318 07002KT CAVOK=

EFKK (09:50 UTC)

Kokkola-Pietarsaari/Kruunupyy Airport

METAR

SN

EFKK 230950Z AUTO 02005KT 9999 -SN OVC006 M06/M07 Q1007=

TAF

SN

EFKK 230833Z 2309/2318 03005KT 9999 -SN OVC003 BECMG 2309/2311 BKN012 BECMG 2311/2313 FEW015=

EFVA (09:50 UTC)

Vaasa Airport

METAR

EFVA 230950Z AUTO 03003KT 350V070 9999 -FZUP SCT005/// OVC016/// M05/M06 Q1007=

TAF

EFVA 230833Z 2309/2409 03005KT 9999 BKN004 TEMPO 2309/2311 SCT005 BKN015 BECMG 2311/2313 BKN015=

EFKU (09:50 UTC)

Kuopio Airport

METAR

SN

EFKU 230950Z VRB02KT 4800 -SN BKN018 OVC028 M07/M08 Q1006=

TAF

FZDZ

EFKU 230833Z 2309/2409 23007KT 8000 -SN BKN040 TEMPO 2309/2313 2000 -SN BKN005 PROB30 2310/2313 -FZDZ TEMPO 2403/2406 BKN003=

EFJY (09:50 UTC)

Jyväskylä Airport

METAR

SN

EFJY 230950Z 22002KT 2700 SN OVC029 M06/M07 Q1005 RESN=

TAF

FZDZ

EFJY 230833Z 2309/2409 27003KT 7000 -SN BKN010 TEMPO 2309/2316 3000 BKN005 PROB30 2311/2316 -FZDZ BECMG 2316/2318 9999 SCT008 BKN030=

EFTP (09:50 UTC)

Tampere-Pirkkala Airport

METAR

EFTP 230950Z 20004KT 9000 OVC004 M03/M03 Q1006=

TAF

SN

EFTP 230833Z 2309/2409 25004KT 9999 BKN006 TEMPO 2309/2312 4000 -SN OVC004 BECMG 2312/2314 BKN015 BECMG 2316/2318 2000 -SN BKN008 TEMPO 2400/2406 7000 NSW FEW008 BKN020 BECMG 2406/2408 CAVOK=

EFPO (09:50 UTC)

Pori Airport

METAR

EFPO 230950Z AUTO 29006KT 9999 FEW028/// BKN048/// M02/M03 Q1006=

TAF

EFPO 230833Z 2309/2315 24005KT 9999 BKN015 TEMPO 2309/2315 BKN012=

EFTU (09:50 UTC)

Turku Airport

METAR

SN

EFTU 230950Z AUTO 27004KT 7000 -SN FEW003/// OVC058/// M01/M02 Q1007=

TAF

SN

EFTU 230828Z 2309/2409 29003KT 1000 -SN OVC002 BECMG 2309/2311 9999 NSW FEW002 BKN040 TEMPO 2320/2402 4000 -SN BECMG 2402/2404 4000 -SN BKN008 TEMPO 2404/2409 9000 NSW BKN040=

EFHK (09:50 UTC)

Helsinki-Vantaa Airport

METAR

SNBR

EFHK 230950Z 19009KT 4000 -SN BR BKN004 M02/M02 Q1008 TEMPO 2000=

TAF

SN

EFHK 230828Z 2309/2409 20007KT 2000 -SN BKN007 BECMG 2309/2311 6000 -SN TEMPO 2311/2315 2000 SN BKN004 BECMG 2315/2317 9999 NSW BKN020 TEMPO 2317/2323 6000 BECMG 2323/2401 4000 -SN TEMPO 2401/2406 2000 SN VV012=

EFMA (09:50 UTC)

Mariehamn Airport

METAR

EFMA 230950Z AUTO VRB01KT 9999 0650 R21/P2000U NSC M05/M06 Q1008=

TAF

EFMA 230828Z 2309/2318 29004KT CAVOK BECMG 2311/2313 BKN009 TEMPO 2313/2318 BKN012=

EKSB (09:50 UTC)

Sønderborg Airport

METAR

EKSB 230950Z 14013KT 6000 BKN015 M02/M05 Q1004=

TAF

BR

EKSB 230857Z 2309/2318 16010KT 6000 SCT012 TEMPO 2309/2312 4000 BR BKN010=

EKSP (09:50 UTC)

Vojens Airport

METAR

EKSP 230950Z 14010KT 6000 BKN010 M03/M05 Q1003 NOSIG=

TAF

BR

EKSP 230807Z 2309/2406 15012KT 8000 FEW012 BKN200 TEMPO 2309/2406 4000 BR BKN008=

EKEB (09:50 UTC)

Esbjerg Airport

METAR

EKEB 230950Z AUTO 13006KT 100V160 6000 FEW170/// M04/M05 Q1003=

TAF

BR

EKEB 230821Z 2309/2318 12008KT 8000 NSC TEMPO 2309/2312 4000 BR BKN010=

EKYT (09:50 UTC)

Aalborg Airport

METAR

EKYT 230950Z AUTO 13010KT 9999 FEW230/// M01/M03 Q1005 RWY 08L ICE 0-10 PCT 1 MM BA GOOD=

TAF

EKYT 230825Z 2309/2406 14012KT 8000 SCT015 SCT200 TEMPO 2309/2406 BKN012=

EKKA (09:50 UTC)

Karup Airport

METAR

EKKA 230950Z AUTO 14008KT 100V180 9999NDV OVC016/// M01/M04 Q1004 RWY 09R DAMP 51-100 PCT LESS THAN 1 MM BA GOOD TEMPO 6000 BKN012=

TAF

BR

EKKA 230825Z 2309/2406 14008KT 8000 SCT012 SCT200 TEMPO 2309/2324 6000 BKN012 TEMPO 2400/2406 4000 BR BKN008=

EKBI (09:50 UTC)

Billund Airport

METAR

EKBI 230950Z AUTO 13004KT 090V170 8000 BKN014/// M01/M04 Q1003=

TAF

BR

EKBI 230453Z 2306/2406 14008KT 9999 SCT015 TEMPO 2306/2322 BKN010 TEMPO 2322/2406 4000 BR BKN009=

EKVD (09:50 UTC)

Kolding Airport

METAR

BR

EKVD 230950Z 15010KT 5000 BR BKN009 M02/M04 Q1004=

TAF

BR

EKVD 230857Z 2309/2317 15008KT 6000 BKN020 TEMPO 2309/2312 4000 BR BKN009=

EKOD (09:50 UTC)

Odense Airport

METAR

EKOD 230950Z 13011KT 8000 BKN012 OVC015 M02/M03 Q1005 RWY 06 ICE 11-25 PCT LESS THAN 1 MM BA MEDIUM/GOOD=

TAF

EKOD 230857Z 2309/2317 15008KT 8000 BKN012 TEMPO 2309/2317 FEW012=

EKCH (09:50 UTC)

Copenhagen Airport, Kastrup

METAR

EKCH 230950Z AUTO 16013KT 9999NDV NCD 00/M06 Q1007 RWY 04L RIME OR FROST 0-10 PCT 1 MM FCT 0.78 RWY 04R RIME OR FROST 0-10 PCT 1 MM FCT 0.81 RWY 12 RIME OR FROST 0-10 PCT 1 MM FCT 0.86 NOSIG=

TAF

EKCH 230453Z 2306/2406 15015KT 9999 SCT018 TEMPO 2306/2406 BKN012=

EKRK (09:50 UTC)

Copenhagen Airport, Roskilde

METAR

EKRK 230950Z AUTO 14011KT 6000NDV FEW014/// M01/M04 Q1006 RWY 99 ICE 0-10 PCT 1 MM BA MEDIUM/GOOD=

TAF

EKRK 230824Z 2309/2318 15013KT 8000 SCT015 TEMPO 2309/2318 BKN012=

ENRY (09:50 UTC)

Moss flygplats, Rygge

METAR

ENRY 230950Z 05002KT 9999 BKN045 M02/M04 Q1007 NOSIG=

TAF

SN

ENRY 230500Z 2306/2406 VRB05KT 9999 FEW010 OVC020 TEMPO 2400/2406 2000 -SN VV012=

ENGM (09:50 UTC)

Oslo flygplats, Gardermoen

METAR

BR

ENGM 230950Z 00000KT 4000 BR FEW005 OVC047 M04/M05 Q1006 TEMPO 6000=

TAF

FZDZBR

ENGM AAA 230845Z 2308/2406 02005KT 9000 SCT005 OVC040 TEMPO 2308/2406 3000 -SN BR OVC004 PROB30 2308/2406 -FZDZ=

ENTO (09:50 UTC)

Sandefjord flygplats, Torp

METAR

ENTO 230950Z 36004KT 8000 FEW010 BKN020 M03/M04 Q1006 NOSIG=

TAF

FZDZBR

ENTO AAA 230844Z 2308/2406 01008KT 9999 SCT007 BKN015 TEMPO 2308/2406 3000 -SNSG BR OVC003 PROB40 2308/2324 -FZDZ PROB40 2308/2321 15012KT=

ENCN (09:50 UTC)

Kristiansand flygplats, Kjevik

METAR

ENCN 230950Z 10006KT 9999 BKN022 01/M03 Q1004=

TAF

ENCN 230800Z 2309/2318 12008KT 9999 FEW015 BKN025=

ENZV (09:50 UTC)

Stavanger-Sola flygplats

METAR

ENZV 230950Z 12011KT 080V150 9999 SCT045 BKN065 02/M05 Q1001 NOSIG=

TAF

SN

ENZV 230500Z 2306/2406 13015KT 9999 -SNRA FEW030 BKN060=

ENHD (09:50 UTC)

Haugesund flygplats, Karmøy

METAR

ENHD 230950Z 15012KT 9999 SCT034 BKN065 02/M06 Q1001=

TAF

RA

ENHD 230800Z 2309/2318 13015KT 9999 -RASN SCT020 BKN030=

ENBR (09:50 UTC)

Bergen flygplats, Flesland

METAR

ENBR 230950Z 19010KT 9999 FEW035 BKN050 03/M04 Q1001 NOSIG RMK WIND 1200FT 17013KT=

TAF

SN

ENBR 230500Z 2306/2406 15008KT 9999 FEW020 BKN040 TEMPO 2306/2406 16015G25KT PROB30 TEMPO 2321/2406 3000 -SNRA VV012=

ENBL (09:20 UTC)

Førde flygplats, Bringeland

METAR

ENBL 230920Z VRB03KT 9999 SCT060 SCT090 M01/M08 Q1000=

TAF

Ingen TAF hittades.

ENML (09:20 UTC)

Molde flygplats, Årø

METAR

ENML 230920Z 04008KT CAVOK M06/M08 Q1002=

TAF

ENML 230800Z 2309/2318 04008KT 9999 SCT050=

ENKB (09:20 UTC)

Kristiansund flygplats, Kvernberget

METAR

ENKB 230920Z 07005KT 050V110 CAVOK M02/M07 Q1001 RMK WIND 745FT 14007KT=

TAF

ENKB 230800Z 2309/2318 VRB06KT 9999 SCT045=

ENRO (09:20 UTC)

Røros flygplats

METAR

ENRO 230920Z 10002KT CAVOK M25/M27 Q1000=

TAF

ENRO 230800Z 2309/2318 VRB03KT CAVOK=

ENVA (09:50 UTC)

Trondheim flygplats, Værnes

METAR

ENVA 230950Z 09005KT CAVOK M14/M15 Q1004 NOSIG RMK WIND 670FT 30002KT=

TAF

ENVA 230500Z 2306/2406 11008KT CAVOK=

ENOL (09:50 UTC)

Ørland flygplats

METAR

ENOL 230950Z 12015KT 9999 FEW008 BKN200 M05/M07 Q1002 NOSIG=

TAF

ENOL 230500Z 2306/2406 13020KT 9999 FEW020 SCT120=

ENBN (09:20 UTC)

Brønnøysund flygplats, Brønnøy

METAR

ENBN 230920Z VRB02KT CAVOK M05/M07 Q1003=

TAF

ENBN 230800Z 2309/2318 05008KT CAVOK TEMPO 2309/2318 11015KT=

ENRA (09:20 UTC)

Mo i Rana flygplats, Røssvoll

METAR

ENRA 230920Z 34005KT CAVOK M23/M26 Q1007=

TAF

ENRA 230800Z 2309/2318 VRB05KT 9999 FEW030 TEMPO 2309/2318 09010KT=

ENBO (09:50 UTC)

Bodö flygplats

METAR

ENBO 230950Z 09022KT 9999 DRSN FEW040 M04/M10 Q1005 TEMPO 10022G32KT=

TAF

ENBO 230500Z 2306/2406 08015KT 9999 FEW030 TEMPO 2309/2406 12018G28KT=

ENSH (09:20 UTC)

Svolvær flygplats, Helle

METAR

ENSH 230920Z 05018KT 9999 SCT033 M03/M09 Q1006 RMK WIND 150FT 04020KT=

TAF

ENSH 230800Z 2309/2318 06015KT 9999 SCT040=

ENAN (09:50 UTC)

Andøya flygplats

METAR

ENAN 230950Z 11018KT CAVOK M04/M12 Q1009=

TAF

ENAN 230500Z 2306/2406 12018KT CAVOK=

ENEV (09:20 UTC)

Harstad-Narvik flygplats

METAR

ENEV 230920Z VRB03KT 9999 FEW045 M10/M13 Q1008 RMK WIND 1400FT 09015KT=

TAF

ENEV 230800Z 2309/2318 VRB05KT CAVOK TEMPO 2309/2318 09010KT=

ENDU (09:50 UTC)

Bardufoss flygplats

METAR

ENDU 230950Z 00000KT 9999 FEW045 M27/M29 Q1011 NOSIG RMK WIND 1100FT 09009KT WIND 2200FT 10014KT=

TAF

ENDU 230500Z 2306/2406 VRB05KT CAVOK=

ENTC (09:50 UTC)

Tromsø flygplats

METAR

ENTC 230950Z VRB02KT CAVOK M12/M13 Q1012 NOSIG RMK WIND 2600FT 07007KT=

TAF

ENTC 230500Z 2306/2406 VRB05KT 9999 FEW010=

ENNA (09:20 UTC)

Lakselv flygplats

METAR

ENNA 230920Z VRB03KT 9999 FEW020 M19/M22 Q1014 RMK WIND 1800FT 02005KT=

TAF

ENNA 230500Z 2306/2406 VRB05KT 9999 FEW010 PROB40 2306/2406 BKN005=

ENHF (09:20 UTC)

Hammerfest flygplats

METAR

ENHF 230920Z VRB03KT 9999 FEW015 M07/M09 Q1013 RMK WIND 1254FT 07006KT=

TAF

ENHF 230800Z 2309/2318 06008KT 9999 FEW015=

ENKR (09:20 UTC)

Kirkenes Airport, Høybuktmoen

METAR

FG

ENKR 230920Z 30003KT 9999 5000E VCFG FEW010 SCT018 M15/M16 Q1010 RMK WIND 731FT 27007KT=

TAF

SHSNTCU

ENKR 230800Z 2309/2318 26005KT 9999 FEW012TCU SCT030 PROB30 2309/2311 0500 FZFG VV002 TEMPO 2310/2318 03010KT 1000 SHSNGS VV007=

ENSB (09:50 UTC)

Svalbard Airport, Longyear

METAR

ENSB 230950Z 11006KT CAVOK M15/M18 Q1027 NOSIG RMK WIND 1400FT 11006KT=

TAF

ENSB 230500Z 2306/2406 12008KT 9999 FEW001=

ENSK (09:20 UTC)

Stokmarknes Airport, Skagen

METAR

ENSK 230920Z 05009KT 9999 FEW040 M05/M11 Q1008=

TAF

Ingen TAF hittades.